Time;durP1;ratioP1;P1;durP2;ratioP2;P2;SDS_P1;SDS_P2;PMS_P1;PMS_P2;Temp;Humidity;BMP_temperature;BMP_pressure;BME280_temperature;BME280_humidity;BME280_pressure;Samples;Min_cycle;Max_cycle;Signal;HPM_P1;HPM_P2
2023/06/21 00:01:38;;;;;;;9.53;8.50;;;;;;;;;;5009687;28;20239;-69
2023/06/21 00:04:05;;;;;;;10.70;9.03;;;;;;;;;;5009918;28;20235;-69
2023/06/21 00:06:49;;;;;;;9.80;8.83;;;;;;;;;;4995226;28;20259;-69
2023/06/21 00:09:16;;;;;;;9.20;8.30;;;;;;;;;;5010278;28;20192;-68
2023/06/21 00:12:00;;;;;;;9.80;8.80;;;;;;;;;;5009205;28;20290;-69
2023/06/21 00:14:27;;;;;;;12.87;9.70;;;;;;;;;;4992514;28;20266;-69
2023/06/21 00:16:54;;;;;;;11.33;9.23;;;;;;;;;;5009532;28;20231;-69
2023/06/21 00:19:20;;;;;;;9.77;8.77;;;;;;;;;;4992619;28;20196;-69
2023/06/21 00:21:47;;;;;;;10.37;9.27;;;;;;;;;;5009549;28;20196;-69
2023/06/21 00:24:14;;;;;;;10.90;9.80;;;;;;;;;;5010197;28;20184;-69
2023/06/21 00:26:40;;;;;;;11.27;9.00;;;;;;;;;;5010047;28;20188;-69
2023/06/21 00:29:11;;;;;;;11.63;9.20;;;;;;;;;;5008893;28;20227;-69
2023/06/21 00:31:57;;;;;;;10.10;9.00;;;;;;;;;;4992006;28;20179;-69
2023/06/21 00:34:24;;;;;;;10.97;9.77;;;;;;;;;;5009672;28;20244;-69
2023/06/21 00:37:11;;;;;;;11.93;9.70;;;;;;;;;;4991628;28;20180;-69
2023/06/21 00:39:38;;;;;;;11.23;9.33;;;;;;;;;;4991724;28;20255;-70
2023/06/21 00:42:06;;;;;;;13.07;10.07;;;;;;;;;;4975889;28;20200;-69
2023/06/21 00:44:33;;;;;;;10.13;9.07;;;;;;;;;;5009261;28;20169;-68
2023/06/21 00:47:00;;;;;;;12.37;9.10;;;;;;;;;;4991260;28;20291;-68
2023/06/21 00:49:27;;;;;;;11.90;9.73;;;;;;;;;;4990958;28;20227;-68
2023/06/21 00:51:58;;;;;;;9.23;8.17;;;;;;;;;;4988249;28;20633;-68
2023/06/21 00:54:26;;;;;;;9.63;8.63;;;;;;;;;;4989310;28;20295;-69
2023/06/21 00:56:53;;;;;;;10.60;9.50;;;;;;;;;;4990012;28;20211;-69
2023/06/21 00:59:21;;;;;;;13.63;10.03;;;;;;;;;;4989570;28;20197;-68
2023/06/21 01:01:48;;;;;;;13.63;9.30;;;;;;;;;;4972009;28;20200;-69
2023/06/21 01:04:33;;;;;;;10.37;9.37;;;;;;;;;;4989646;28;20180;-69
2023/06/21 01:07:19;;;;;;;11.30;9.40;;;;;;;;;;5000214;28;20196;-68
2023/06/21 01:09:48;;;;;;;12.33;10.60;;;;;;;;;;5008841;28;20890;-68
2023/06/21 01:12:21;;;;;;;9.80;8.27;;;;;;;;;;5009313;28;20196;-68
2023/06/21 01:14:54;;;;;;;9.90;9.00;;;;;;;;;;4975511;28;20653;-69
2023/06/21 01:17:21;;;;;;;11.27;10.00;;;;;;;;;;5008865;28;20232;-68
2023/06/21 01:19:51;;;;;;;15.30;10.90;;;;;;;;;;4991534;28;20283;-69
2023/06/21 01:22:18;;;;;;;10.90;9.80;;;;;;;;;;5008687;28;20193;-68
2023/06/21 01:24:47;;;;;;;13.00;10.30;;;;;;;;;;4990435;28;20216;-69
2023/06/21 01:27:17;;;;;;;12.50;11.20;;;;;;;;;;4991701;28;20681;-68
2023/06/21 01:29:45;;;;;;;14.40;10.50;;;;;;;;;;5008652;28;20196;-69
2023/06/21 01:32:13;;;;;;;11.43;10.20;;;;;;;;;;5008903;28;20276;-68
2023/06/21 01:34:39;;;;;;;10.33;9.30;;;;;;;;;;4975125;28;20238;-68
2023/06/21 01:37:08;;;;;;;13.07;10.20;;;;;;;;;;4974875;28;20198;-69
2023/06/21 01:39:36;;;;;;;10.57;9.47;;;;;;;;;;4974745;28;20199;-69
2023/06/21 02:13:48;;;;;;;9.97;8.80;;;;;;;;;;4991112;28;20240;-73
2023/06/21 02:16:15;;;;;;;9.87;8.87;;;;;;;;;;4973995;28;20212;-71
2023/06/21 02:18:42;;;;;;;10.07;9.03;;;;;;;;;;4989364;28;20211;-72
2023/06/21 02:21:15;;;;;;;11.13;9.33;;;;;;;;;;4991251;28;20173;-72
2023/06/21 02:23:43;;;;;;;9.90;8.70;;;;;;;;;;5004519;28;20196;-68
2023/06/21 02:26:10;;;;;;;9.60;7.90;;;;;;;;;;4973789;28;20196;-72
2023/06/21 02:28:41;;;;;;;11.50;8.43;;;;;;;;;;4990786;28;20199;-72
2023/06/21 02:31:08;;;;;;;9.73;8.73;;;;;;;;;;4991277;28;20213;-72
2023/06/21 02:33:36;;;;;;;9.00;8.20;;;;;;;;;;4991566;28;20710;-72
2023/06/21 02:36:03;;;;;;;10.67;9.27;;;;;;;;;;4993733;28;20199;-72
2023/06/21 02:38:32;;;;;;;12.03;10.10;;;;;;;;;;4989897;28;20715;-73
2023/06/21 02:40:58;;;;;;;10.60;9.50;;;;;;;;;;4973524;28;20255;-73
2023/06/21 02:43:25;;;;;;;11.87;9.90;;;;;;;;;;5007503;28;20203;-71
2023/06/21 02:45:53;;;;;;;12.83;10.40;;;;;;;;;;5010241;28;20180;-71
2023/06/21 02:48:20;;;;;;;10.40;9.07;;;;;;;;;;4976993;28;20247;-70
2023/06/21 02:50:47;;;;;;;11.37;10.23;;;;;;;;;;4994992;28;20242;-72
2023/06/21 02:53:15;;;;;;;11.63;9.70;;;;;;;;;;4991795;28;20287;-73
2023/06/21 02:55:42;;;;;;;13.37;10.27;;;;;;;;;;5008811;28;20307;-72
2023/06/21 02:58:11;;;;;;;11.93;9.07;;;;;;;;;;4994263;28;20204;-69
2023/06/21 03:00:40;;;;;;;10.93;9.80;;;;;;;;;;4993038;28;20200;-73
2023/06/21 03:03:08;;;;;;;11.40;10.03;;;;;;;;;;4996894;28;20200;-73
2023/06/21 03:05:35;;;;;;;10.87;9.77;;;;;;;;;;4976194;28;20304;-72
2023/06/21 03:08:04;;;;;;;11.33;9.77;;;;;;;;;;4997243;28;20184;-72
2023/06/21 03:10:32;;;;;;;9.90;8.50;;;;;;;;;;4977746;28;20239;-72
2023/06/21 03:13:03;;;;;;;11.30;10.10;;;;;;;;;;4990089;28;20312;-71
2023/06/21 03:15:30;;;;;;;11.13;9.93;;;;;;;;;;4990151;28;20900;-72
2023/06/21 03:17:57;;;;;;;9.80;8.57;;;;;;;;;;4970653;28;20267;-69
2023/06/21 03:20:26;;;;;;;9.73;8.80;;;;;;;;;;4955518;28;20209;-71
2023/06/21 03:22:53;;;;;;;9.97;8.97;;;;;;;;;;4974908;28;20194;-70
2023/06/21 03:25:20;;;;;;;10.47;9.40;;;;;;;;;;4984764;28;20243;-71
2023/06/21 03:27:50;;;;;;;10.53;9.43;;;;;;;;;;4988768;28;20283;-68
2023/06/21 03:30:17;;;;;;;10.30;9.13;;;;;;;;;;4977665;28;20194;-70
2023/06/21 03:32:49;;;;;;;11.20;8.80;;;;;;;;;;4961699;28;20197;-72
2023/06/21 03:35:18;;;;;;;12.07;9.27;;;;;;;;;;4973914;28;20579;-72
2023/06/21 03:37:48;;;;;;;10.07;8.97;;;;;;;;;;4954876;28;20189;-73
2023/06/21 03:40:20;;;;;;;9.83;8.80;;;;;;;;;;4956040;28;20708;-74
2023/06/21 03:42:50;;;;;;;10.63;9.53;;;;;;;;;;4954811;28;20581;-73
2023/06/21 03:45:17;;;;;;;9.80;8.90;;;;;;;;;;4982595;28;20223;-74
2023/06/21 03:47:51;;;;;;;10.87;9.17;;;;;;;;;;4971386;28;20216;-72
2023/06/21 03:50:19;;;;;;;9.23;8.03;;;;;;;;;;4980691;28;20856;-72
2023/06/21 03:52:47;;;;;;;9.33;8.43;;;;;;;;;;4966723;28;20255;-68
2023/06/21 03:55:17;;;;;;;10.73;8.00;;;;;;;;;;4956084;28;20255;-69
2023/06/21 03:57:44;;;;;;;10.20;9.20;;;;;;;;;;4977909;28;20186;-72
2023/06/21 04:00:13;;;;;;;10.73;9.27;;;;;;;;;;4983647;28;20201;-79
2023/06/21 04:02:51;;;;;;;11.13;9.10;;;;;;;;;;4988040;28;20204;-73
2023/06/21 04:05:19;;;;;;;11.57;8.70;;;;;;;;;;4972119;28;20263;-73
2023/06/21 04:07:46;;;;;;;9.87;8.87;;;;;;;;;;4963989;28;20840;-75
2023/06/21 04:10:14;;;;;;;13.67;8.70;;;;;;;;;;4975333;28;20268;-74
2023/06/21 04:12:41;;;;;;;8.90;7.90;;;;;;;;;;4980086;28;20193;-73
2023/06/21 04:15:11;;;;;;;9.97;8.37;;;;;;;;;;4954035;28;20304;-74
2023/06/21 04:17:39;;;;;;;10.13;8.13;;;;;;;;;;4974125;28;20208;-74
2023/06/21 04:20:24;;;;;;;10.30;8.17;;;;;;;;;;4989961;28;20271;-72
2023/06/21 04:22:51;;;;;;;10.10;8.60;;;;;;;;;;4982363;28;20188;-72
2023/06/21 04:25:19;;;;;;;12.10;8.33;;;;;;;;;;4999087;28;20216;-73
2023/06/21 04:27:46;;;;;;;10.13;8.73;;;;;;;;;;4987179;28;20192;-72
2023/06/21 04:30:16;;;;;;;11.67;8.83;;;;;;;;;;5004861;28;20200;-72
2023/06/21 04:32:46;;;;;;;11.63;8.40;;;;;;;;;;5000027;28;20258;-72
2023/06/21 04:35:14;;;;;;;12.80;9.27;;;;;;;;;;4999495;28;20221;-72
2023/06/21 04:37:44;;;;;;;12.77;8.90;;;;;;;;;;4985048;28;20232;-73
2023/06/21 04:40:16;;;;;;;11.70;8.70;;;;;;;;;;4992344;28;20283;-73
2023/06/21 04:42:45;;;;;;;11.67;8.63;;;;;;;;;;5007145;28;20200;-72
2023/06/21 04:45:14;;;;;;;11.90;9.10;;;;;;;;;;4995614;28;20216;-72
2023/06/21 04:47:41;;;;;;;11.73;8.50;;;;;;;;;;5006387;28;20192;-72
2023/06/21 04:50:09;;;;;;;10.80;8.10;;;;;;;;;;4992686;28;20188;-72
2023/06/21 04:52:47;;;;;;;10.67;8.23;;;;;;;;;;4980817;28;20180;-72
2023/06/21 04:55:17;;;;;;;12.03;8.07;;;;;;;;;;4997591;28;20217;-72
2023/06/21 04:58:05;;;;;;;11.17;8.60;;;;;;;;;;4997573;28;20205;-72
2023/06/21 05:00:34;;;;;;;12.90;8.10;;;;;;;;;;4981741;28;20733;-72
2023/06/21 05:03:01;;;;;;;13.03;8.37;;;;;;;;;;5002008;28;20184;-72
2023/06/21 05:05:28;;;;;;;12.83;7.77;;;;;;;;;;4997328;28;20194;-72
2023/06/21 05:07:57;;;;;;;10.77;8.63;;;;;;;;;;5001663;28;20180;-73
2023/06/21 05:10:24;;;;;;;10.10;8.50;;;;;;;;;;4982801;28;20307;-74
2023/06/21 05:12:51;;;;;;;12.93;9.40;;;;;;;;;;5004503;28;20269;-72
2023/06/21 05:15:18;;;;;;;13.97;8.43;;;;;;;;;;5003577;28;20214;-62
2023/06/21 05:17:48;;;;;;;13.87;8.40;;;;;;;;;;4995550;28;20243;-63
2023/06/21 05:20:17;;;;;;;14.57;9.27;;;;;;;;;;4987860;28;20193;-63
2023/06/21 05:22:44;;;;;;;13.37;9.07;;;;;;;;;;4986549;28;20276;-63
2023/06/21 05:25:11;;;;;;;13.10;9.30;;;;;;;;;;4987773;28;20188;-72
2023/06/21 05:27:38;;;;;;;11.20;8.67;;;;;;;;;;4996450;28;20197;-73
2023/06/21 05:30:06;;;;;;;11.17;9.37;;;;;;;;;;4970873;28;20184;-73
2023/06/21 05:32:32;;;;;;;11.53;9.40;;;;;;;;;;4989115;28;20180;-72
2023/06/21 05:34:59;;;;;;;15.07;9.60;;;;;;;;;;4998035;28;20243;-72
2023/06/21 05:37:26;;;;;;;10.20;8.60;;;;;;;;;;4999783;28;20195;-72
2023/06/21 05:40:12;;;;;;;10.23;9.13;;;;;;;;;;4998243;28;20898;-72
2023/06/21 05:42:39;;;;;;;14.37;9.30;;;;;;;;;;4987124;28;20199;-72
2023/06/21 05:45:23;;;;;;;14.80;8.97;;;;;;;;;;4988908;28;20276;-73
2023/06/21 05:47:51;;;;;;;11.43;9.30;;;;;;;;;;4987890;28;20259;-72
2023/06/21 05:50:18;;;;;;;10.67;8.83;;;;;;;;;;5000046;28;20223;-71
2023/06/21 05:52:45;;;;;;;14.97;9.87;;;;;;;;;;4971219;28;20224;-71
2023/06/21 05:55:12;;;;;;;13.33;9.23;;;;;;;;;;5002305;28;20216;-71
2023/06/21 05:57:56;;;;;;;15.57;9.60;;;;;;;;;;5008684;28;21001;-71
2023/06/21 06:00:23;;;;;;;15.03;9.50;;;;;;;;;;5008408;28;20277;-70
2023/06/21 06:02:50;;;;;;;11.77;9.03;;;;;;;;;;4991664;28;20579;-70
2023/06/21 06:05:18;;;;;;;13.40;9.87;;;;;;;;;;5007219;28;20219;-70
2023/06/21 06:07:44;;;;;;;12.10;9.63;;;;;;;;;;4978510;28;20537;-70
2023/06/21 06:10:11;;;;;;;14.03;9.33;;;;;;;;;;4985064;28;20197;-70
2023/06/21 06:12:39;;;;;;;13.23;9.30;;;;;;;;;;4999461;28;20265;-70
2023/06/21 06:15:06;;;;;;;14.03;10.07;;;;;;;;;;4986134;28;20730;-70
2023/06/21 06:17:33;;;;;;;15.13;10.07;;;;;;;;;;4992764;28;20644;-71
2023/06/21 06:20:05;;;;;;;19.43;10.77;;;;;;;;;;5001698;28;20187;-70
2023/06/21 06:22:33;;;;;;;13.60;10.10;;;;;;;;;;5007472;28;20195;-71
2023/06/21 06:25:01;;;;;;;15.10;10.83;;;;;;;;;;4999382;28;20200;-71
2023/06/21 06:27:28;;;;;;;13.33;10.03;;;;;;;;;;5008445;28;20192;-70
2023/06/21 06:29:55;;;;;;;12.03;10.40;;;;;;;;;;5000218;28;20190;-71
2023/06/21 06:32:23;;;;;;;17.40;11.10;;;;;;;;;;4985666;28;20201;-70
2023/06/21 06:34:49;;;;;;;13.53;10.60;;;;;;;;;;4979331;28;20547;-71
2023/06/21 06:37:16;;;;;;;12.97;9.93;;;;;;;;;;4991338;28;20334;-70
2023/06/21 06:39:48;;;;;;;16.60;10.30;;;;;;;;;;4992840;28;20189;-61
2023/06/21 06:42:14;;;;;;;11.67;9.77;;;;;;;;;;4997975;28;20616;-62
2023/06/21 06:44:41;;;;;;;13.07;10.43;;;;;;;;;;5005322;28;20789;-62
2023/06/21 06:47:28;;;;;;;12.60;10.50;;;;;;;;;;5011419;28;20206;-70
2023/06/21 06:49:55;;;;;;;13.13;11.33;;;;;;;;;;4982244;28;20282;-71
2023/06/21 06:52:39;;;;;;;12.83;10.53;;;;;;;;;;4999778;28;20183;-72
2023/06/21 06:55:07;;;;;;;13.80;10.93;;;;;;;;;;4983076;28;20223;-72
2023/06/21 06:57:34;;;;;;;11.73;10.53;;;;;;;;;;4986633;28;20673;-72
2023/06/21 07:00:12;;;;;;;15.53;11.23;;;;;;;;;;4992255;28;20192;-71
2023/06/21 07:02:39;;;;;;;12.80;10.63;;;;;;;;;;4991873;28;20204;-71
2023/06/21 07:05:06;;;;;;;13.83;11.07;;;;;;;;;;4974822;28;20193;-72
2023/06/21 07:07:33;;;;;;;14.17;11.03;;;;;;;;;;4991726;28;20185;-71
2023/06/21 07:10:00;;;;;;;11.20;10.00;;;;;;;;;;5001576;28;20252;-70
2023/06/21 07:12:27;;;;;;;13.23;10.43;;;;;;;;;;4976859;28;20193;-72
2023/06/21 07:14:58;;;;;;;12.57;10.90;;;;;;;;;;4991849;28;20192;-72
2023/06/21 07:17:26;;;;;;;11.90;10.70;;;;;;;;;;5009064;28;20232;-71
2023/06/21 07:19:53;;;;;;;12.63;11.37;;;;;;;;;;4990443;28;20213;-72
2023/06/21 07:22:23;;;;;;;12.37;11.03;;;;;;;;;;4989432;28;20197;-72
2023/06/21 07:24:50;;;;;;;13.37;10.83;;;;;;;;;;4974103;28;20188;-73
2023/06/21 07:27:17;;;;;;;13.50;11.27;;;;;;;;;;5009904;28;20204;-73
2023/06/21 07:29:44;;;;;;;23.37;12.17;;;;;;;;;;4988596;28;20201;-72
2023/06/21 07:32:11;;;;;;;13.20;11.23;;;;;;;;;;4991116;28;20895;-72
2023/06/21 07:34:38;;;;;;;11.67;10.43;;;;;;;;;;4994713;28;20232;-69
2023/06/21 07:37:05;;;;;;;11.60;10.53;;;;;;;;;;4999904;28;20262;-72
2023/06/21 07:39:50;;;;;;;13.17;10.60;;;;;;;;;;4993107;28;20522;-71
2023/06/21 07:42:22;;;;;;;14.60;11.27;;;;;;;;;;4989758;28;20188;-69
2023/06/21 07:44:50;;;;;;;12.07;10.80;;;;;;;;;;4989540;28;20560;-69
2023/06/21 07:47:18;;;;;;;12.07;10.70;;;;;;;;;;4989511;28;20202;-70
2023/06/21 07:49:45;;;;;;;11.90;10.70;;;;;;;;;;4989470;28;20294;-69
2023/06/21 07:52:14;;;;;;;12.70;11.57;;;;;;;;;;4989274;28;20180;-70
2023/06/21 07:54:43;;;;;;;15.07;11.37;;;;;;;;;;4988606;28;20286;-71
2023/06/21 07:57:09;;;;;;;12.83;11.63;;;;;;;;;;4989728;28;20188;-70
2023/06/21 07:59:36;;;;;;;12.33;11.13;;;;;;;;;;4989548;28;20192;-71
2023/06/21 08:02:03;;;;;;;14.00;11.53;;;;;;;;;;4988068;28;20220;-71
2023/06/21 08:04:30;;;;;;;21.87;12.33;;;;;;;;;;4971761;28;20197;-71
2023/06/21 08:07:15;;;;;;;12.60;11.40;;;;;;;;;;4988416;28;20172;-70
2023/06/21 08:09:43;;;;;;;14.30;12.00;;;;;;;;;;4971652;28;20743;-67
2023/06/21 08:12:27;;;;;;;11.90;10.90;;;;;;;;;;5005274;28;20184;-68
2023/06/21 08:14:54;;;;;;;13.33;11.40;;;;;;;;;;5008850;28;20275;-70
2023/06/21 08:17:22;;;;;;;12.53;11.27;;;;;;;;;;4996957;28;20238;-68
2023/06/21 08:19:50;;;;;;;12.53;11.23;;;;;;;;;;5007673;28;20278;-71
2023/06/21 08:22:17;;;;;;;13.07;11.10;;;;;;;;;;4971707;28;20229;-71
2023/06/21 08:24:44;;;;;;;15.93;11.97;;;;;;;;;;4988635;28;20188;-71
2023/06/21 08:27:11;;;;;;;13.03;11.07;;;;;;;;;;4989445;28;20184;-69
2023/06/21 08:29:38;;;;;;;12.83;11.70;;;;;;;;;;4973378;28;20593;-70
2023/06/21 08:32:05;;;;;;;13.73;12.27;;;;;;;;;;4990271;28;20192;-71
2023/06/21 08:34:32;;;;;;;12.93;11.73;;;;;;;;;;4988845;28;20192;-70
2023/06/21 08:36:59;;;;;;;14.50;12.67;;;;;;;;;;4990014;28;20189;-71
2023/06/21 08:39:43;;;;;;;13.63;12.33;;;;;;;;;;4975371;28;20173;-71
2023/06/21 08:42:10;;;;;;;14.03;12.60;;;;;;;;;;4973265;28;20526;-70
2023/06/21 08:44:54;;;;;;;13.03;11.93;;;;;;;;;;4990370;28;20169;-70
2023/06/21 08:47:22;;;;;;;13.43;11.37;;;;;;;;;;4972448;28;20211;-71
2023/06/21 08:49:49;;;;;;;16.23;11.80;;;;;;;;;;4972861;28;20711;-71
2023/06/21 08:52:17;;;;;;;14.57;12.80;;;;;;;;;;4978748;28;20188;-70
2023/06/21 08:54:45;;;;;;;13.93;12.53;;;;;;;;;;4992054;28;20211;-70
2023/06/21 08:57:22;;;;;;;13.83;12.53;;;;;;;;;;4992176;28;20282;-71
2023/06/21 08:59:50;;;;;;;13.00;11.70;;;;;;;;;;4992435;28;20265;-70
2023/06/21 09:02:27;;;;;;;13.50;12.20;;;;;;;;;;4992133;28;20260;-71
2023/06/21 09:04:55;;;;;;;13.77;12.07;;;;;;;;;;5008015;28;20199;-70
2023/06/21 09:07:22;;;;;;;13.03;11.73;;;;;;;;;;5008341;28;20189;-71
2023/06/21 09:09:48;;;;;;;14.07;12.60;;;;;;;;;;4988135;28;20279;-71
2023/06/21 09:12:16;;;;;;;13.27;11.97;;;;;;;;;;4972722;28;20198;-70
2023/06/21 09:15:00;;;;;;;14.40;13.00;;;;;;;;;;4974800;28;20284;-71
2023/06/21 09:17:27;;;;;;;13.30;12.00;;;;;;;;;;4989508;28;20290;-71
2023/06/21 09:20:12;;;;;;;14.17;12.77;;;;;;;;;;4989455;28;20763;-72
2023/06/21 09:22:39;;;;;;;13.10;11.73;;;;;;;;;;4972149;28;20198;-72
2023/06/21 09:25:07;;;;;;;13.57;12.27;;;;;;;;;;4972807;28;20205;-71
2023/06/21 09:27:33;;;;;;;14.30;12.93;;;;;;;;;;4972706;28;20242;-72
2023/06/21 09:30:00;;;;;;;13.70;12.37;;;;;;;;;;4989654;28;20195;-72
2023/06/21 09:32:47;;;;;;;16.17;13.10;;;;;;;;;;4975447;28;20538;-71
2023/06/21 09:35:14;;;;;;;13.17;11.90;;;;;;;;;;4989432;28;20237;-71
2023/06/21 09:37:41;;;;;;;13.33;12.03;;;;;;;;;;4988987;28;20192;-71
2023/06/21 09:40:11;;;;;;;13.73;11.87;;;;;;;;;;4989352;28;20187;-71
2023/06/21 09:42:41;;;;;;;14.63;12.10;;;;;;;;;;4989128;28;20194;-72
2023/06/21 09:45:08;;;;;;;13.00;11.90;;;;;;;;;;4972352;28;20658;-70
2023/06/21 09:47:35;;;;;;;13.60;12.17;;;;;;;;;;4989495;28;20185;-71
2023/06/21 09:50:08;;;;;;;13.77;11.40;;;;;;;;;;4971961;28;20705;-71
2023/06/21 09:52:35;;;;;;;13.73;12.30;;;;;;;;;;4989199;28;20224;-71
2023/06/21 09:55:05;;;;;;;13.40;12.00;;;;;;;;;;4971563;28;20230;-71
2023/06/21 09:57:32;;;;;;;12.87;11.67;;;;;;;;;;4989366;28;20192;-71
2023/06/21 09:59:59;;;;;;;12.93;11.63;;;;;;;;;;4971798;28;20916;-70
2023/06/21 10:02:26;;;;;;;11.80;10.70;;;;;;;;;;4972155;28;20195;-70
2023/06/21 10:04:57;;;;;;;11.97;10.80;;;;;;;;;;4971805;28;20548;-69
2023/06/21 10:07:26;;;;;;;12.93;11.53;;;;;;;;;;4971829;28;20694;-70
2023/06/21 10:09:53;;;;;;;12.33;10.90;;;;;;;;;;4989241;28;20197;-71
2023/06/21 10:12:19;;;;;;;12.23;9.77;;;;;;;;;;4988949;28;20197;-69
2023/06/21 10:14:46;;;;;;;10.13;9.03;;;;;;;;;;4989361;28;20197;-69
2023/06/21 10:17:13;;;;;;;9.33;8.47;;;;;;;;;;4964843;28;20312;-71
2023/06/21 10:19:40;;;;;;;9.53;8.20;;;;;;;;;;4956006;28;20199;-71
2023/06/21 10:22:10;;;;;;;9.33;8.10;;;;;;;;;;4973205;28;20196;-72
2023/06/21 10:24:37;;;;;;;8.83;7.90;;;;;;;;;;4972981;28;20200;-71
2023/06/21 10:27:07;;;;;;;9.63;8.07;;;;;;;;;;4955865;28;20201;-72
2023/06/21 10:29:34;;;;;;;8.90;8.10;;;;;;;;;;4956123;28;20190;-72
2023/06/21 10:32:01;;;;;;;9.07;7.87;;;;;;;;;;4972847;28;20784;-71
2023/06/21 10:34:31;;;;;;;8.67;7.73;;;;;;;;;;4956314;28;20733;-72
2023/06/21 10:37:18;;;;;;;9.37;8.43;;;;;;;;;;4941932;28;20183;-71
2023/06/21 10:39:45;;;;;;;8.33;7.53;;;;;;;;;;4973124;28;20192;-70
2023/06/21 10:42:18;;;;;;;9.90;8.90;;;;;;;;;;4956960;28;20281;-70
2023/06/21 10:44:45;;;;;;;9.20;8.30;;;;;;;;;;4973128;28;20701;-70
2023/06/21 10:47:11;;;;;;;9.73;8.70;;;;;;;;;;4955902;28;20197;-69
2023/06/21 10:49:39;;;;;;;10.27;9.20;;;;;;;;;;4955661;28;20195;-70
2023/06/21 10:52:05;;;;;;;9.93;9.03;;;;;;;;;;4956938;28;20186;-70
2023/06/21 10:54:32;;;;;;;9.87;8.97;;;;;;;;;;4955666;28;20198;-70
2023/06/21 10:56:59;;;;;;;9.57;8.57;;;;;;;;;;4972691;28;20924;-70
2023/06/21 10:59:26;;;;;;;10.57;9.60;;;;;;;;;;4972679;28;20280;-70
2023/06/21 11:01:53;;;;;;;11.00;9.20;;;;;;;;;;4955331;28;20542;-70
2023/06/21 11:04:56;;;;;;;9.73;8.83;;;;;;;;;;4972298;28;20258;-71
2023/06/21 11:07:23;;;;;;;10.37;9.10;;;;;;;;;;4972143;28;20196;-70
2023/06/21 11:09:52;;;;;;;9.77;8.87;;;;;;;;;;4955423;28;20358;-70
2023/06/21 11:12:19;;;;;;;10.20;9.10;;;;;;;;;;4955578;28;20545;-71
2023/06/21 11:14:46;;;;;;;10.53;9.57;;;;;;;;;;4972451;28;20194;-70
2023/06/21 11:17:14;;;;;;;10.50;9.60;;;;;;;;;;4955140;28;20244;-70
2023/06/21 11:19:47;;;;;;;10.50;9.60;;;;;;;;;;4972257;28;20284;-70
2023/06/21 11:22:15;;;;;;;10.53;9.27;;;;;;;;;;4972214;28;20205;-70
2023/06/21 11:25:00;;;;;;;11.77;10.50;;;;;;;;;;4972374;28;20196;-69
2023/06/21 11:27:44;;;;;;;10.90;9.80;;;;;;;;;;4958269;28;20169;-70
2023/06/21 11:30:12;;;;;;;13.50;9.97;;;;;;;;;;4954831;28;20193;-71
2023/06/21 11:32:48;;;;;;;11.83;9.47;;;;;;;;;;4954718;28;20308;-70
2023/06/21 11:35:15;;;;;;;11.23;10.13;;;;;;;;;;4954976;28;20200;-70
2023/06/21 11:38:00;;;;;;;10.20;9.30;;;;;;;;;;4956638;28;20187;-71
2023/06/21 11:40:27;;;;;;;24.67;10.83;;;;;;;;;;4938953;28;20666;-70
2023/06/21 11:42:55;;;;;;;11.10;9.77;;;;;;;;;;4954938;28;20199;-70
2023/06/21 11:45:23;;;;;;;10.67;9.77;;;;;;;;;;4972248;28;20203;-70
2023/06/21 11:47:58;;;;;;;10.27;9.37;;;;;;;;;;4992421;28;20200;-70
2023/06/21 11:50:43;;;;;;;9.93;9.00;;;;;;;;;;4978260;28;20177;-71
2023/06/21 11:53:13;;;;;;;9.57;8.67;;;;;;;;;;4965755;28;20193;-70
2023/06/21 11:55:58;;;;;;;12.20;8.70;;;;;;;;;;4992223;28;20284;-70
2023/06/21 11:58:24;;;;;;;10.43;9.43;;;;;;;;;;4980902;28;20212;-70
2023/06/21 12:00:52;;;;;;;9.10;8.20;;;;;;;;;;4955918;28;20193;-69
2023/06/21 12:03:21;;;;;;;9.50;8.53;;;;;;;;;;4955713;28;20252;-71
2023/06/21 12:05:58;;;;;;;9.53;8.73;;;;;;;;;;4969536;28;20195;-70
2023/06/21 12:08:29;;;;;;;10.13;9.03;;;;;;;;;;4965600;28;20588;-69
2023/06/21 12:10:59;;;;;;;9.90;9.00;;;;;;;;;;4972052;28;20223;-69
2023/06/21 12:13:43;;;;;;;8.57;7.87;;;;;;;;;;4973358;28;20184;-70
2023/06/21 12:16:10;;;;;;;9.50;8.50;;;;;;;;;;4972989;28;20248;-71
2023/06/21 12:18:37;;;;;;;10.27;8.63;;;;;;;;;;4990882;28;20538;-71
2023/06/21 12:21:04;;;;;;;9.87;8.97;;;;;;;;;;4991834;28;20293;-71
2023/06/21 12:23:31;;;;;;;9.47;8.53;;;;;;;;;;4982370;28;20192;-71
2023/06/21 12:26:17;;;;;;;9.40;8.60;;;;;;;;;;4995784;28;20207;-71
2023/06/21 12:28:44;;;;;;;9.83;8.93;;;;;;;;;;4992370;28;20556;-71
2023/06/21 12:31:17;;;;;;;10.33;9.33;;;;;;;;;;4974960;28;20201;-71
2023/06/21 12:33:44;;;;;;;10.00;9.10;;;;;;;;;;4992170;28;20307;-71
2023/06/21 12:36:17;;;;;;;9.97;8.63;;;;;;;;;;4991474;28;20255;-71
2023/06/21 12:38:48;;;;;;;10.40;8.37;;;;;;;;;;4992008;28;20196;-70
2023/06/21 12:41:18;;;;;;;8.97;8.07;;;;;;;;;;4975278;28;20200;-70
2023/06/21 12:43:46;;;;;;;8.60;7.27;;;;;;;;;;4974813;28;20221;-69
2023/06/21 12:46:13;;;;;;;10.90;6.50;;;;;;;;;;4991615;28;20283;-69
2023/06/21 12:48:44;;;;;;;9.90;6.80;;;;;;;;;;4992439;28;20217;-69
2023/06/21 12:51:18;;;;;;;7.23;6.53;;;;;;;;;;4982747;28;20205;-69
2023/06/21 12:53:45;;;;;;;7.07;6.37;;;;;;;;;;4990767;28;20708;-70
2023/06/21 12:56:12;;;;;;;9.90;6.37;;;;;;;;;;5001005;28;20259;-70
2023/06/21 12:58:39;;;;;;;9.17;5.53;;;;;;;;;;4994772;28;20264;-70
2023/06/21 13:01:23;;;;;;;7.07;5.80;;;;;;;;;;4991347;28;20215;-71
2023/06/21 13:03:52;;;;;;;6.70;6.00;;;;;;;;;;4974293;28;20197;-70
2023/06/21 13:06:19;;;;;;;8.47;6.10;;;;;;;;;;4974681;28;20260;-68
2023/06/21 13:08:46;;;;;;;6.90;5.50;;;;;;;;;;4991056;28;20206;-69
2023/06/21 13:11:13;;;;;;;7.47;5.70;;;;;;;;;;4973999;28;20188;-69
2023/06/21 13:13:41;;;;;;;6.47;5.87;;;;;;;;;;4991015;28;20280;-69
2023/06/21 13:16:10;;;;;;;7.93;6.30;;;;;;;;;;4991630;28;20734;-68
2023/06/21 13:18:37;;;;;;;6.60;6.00;;;;;;;;;;4973829;28;20230;-69
2023/06/21 13:21:04;;;;;;;6.80;6.10;;;;;;;;;;4973986;28;20672;-70
2023/06/21 13:23:32;;;;;;;6.37;5.77;;;;;;;;;;4973972;28;20656;-70
2023/06/21 13:25:59;;;;;;;6.67;5.93;;;;;;;;;;4990926;28;20192;-70
2023/06/21 13:28:25;;;;;;;6.83;6.23;;;;;;;;;;4991685;28;20206;-70
2023/06/21 13:30:53;;;;;;;6.13;5.40;;;;;;;;;;4991102;28;20548;-70
2023/06/21 13:33:19;;;;;;;6.70;5.70;;;;;;;;;;4991408;28;20272;-71
2023/06/21 13:36:03;;;;;;;6.83;5.77;;;;;;;;;;4990904;28;20208;-70
2023/06/21 13:38:33;;;;;;;8.23;5.83;;;;;;;;;;4990641;28;20189;-70
2023/06/21 13:41:01;;;;;;;8.07;6.00;;;;;;;;;;4991538;28;20268;-70
2023/06/21 13:43:29;;;;;;;7.17;5.87;;;;;;;;;;4992374;28;20238;-70
2023/06/21 13:45:56;;;;;;;6.43;5.33;;;;;;;;;;4996253;28;20244;-69
2023/06/21 13:48:40;;;;;;;7.60;6.03;;;;;;;;;;4990544;28;20181;-70
2023/06/21 13:51:07;;;;;;;6.70;5.80;;;;;;;;;;4989720;28;20224;-69
2023/06/21 13:53:51;;;;;;;7.07;6.07;;;;;;;;;;5005020;28;20177;-71
2023/06/21 13:56:18;;;;;;;8.10;5.93;;;;;;;;;;4995307;28;20272;-70
2023/06/21 13:59:02;;;;;;;6.20;5.60;;;;;;;;;;4994342;28;20173;-70
2023/06/21 14:01:30;;;;;;;8.00;6.07;;;;;;;;;;4977493;28;20192;-70
2023/06/21 14:04:17;;;;;;;9.10;6.53;;;;;;;;;;4994655;28;20180;-70
2023/06/21 14:06:46;;;;;;;6.90;6.20;;;;;;;;;;4995401;28;20199;-70
2023/06/21 14:09:13;;;;;;;7.47;6.67;;;;;;;;;;4994801;28;20193;-70
2023/06/21 14:11:40;;;;;;;6.83;6.23;;;;;;;;;;4988637;28;20244;-70
2023/06/21 14:14:09;;;;;;;9.63;6.70;;;;;;;;;;5010207;28;20253;-70
2023/06/21 14:16:53;;;;;;;7.30;6.57;;;;;;;;;;4979932;28;20259;-71
2023/06/21 14:19:20;;;;;;;6.90;6.20;;;;;;;;;;4995482;28;20198;-71
2023/06/21 14:22:04;;;;;;;6.90;6.10;;;;;;;;;;5001687;28;20177;-71
2023/06/21 14:24:31;;;;;;;12.63;6.33;;;;;;;;;;4995349;28;20242;-71
2023/06/21 14:26:58;;;;;;;7.13;6.43;;;;;;;;;;5002889;28;20259;-70
2023/06/21 14:29:25;;;;;;;7.37;6.53;;;;;;;;;;4992991;28;20644;-72
2023/06/21 14:31:52;;;;;;;6.77;6.07;;;;;;;;;;4992907;28;20196;-71
2023/06/21 14:34:36;;;;;;;6.80;6.20;;;;;;;;;;4992705;28;20180;-71
2023/06/21 14:37:03;;;;;;;6.83;6.13;;;;;;;;;;4992292;28;20220;-72
2023/06/21 14:39:30;;;;;;;6.80;6.10;;;;;;;;;;4992449;28;20209;-71
2023/06/21 14:41:57;;;;;;;7.13;5.97;;;;;;;;;;4993032;28;20207;-70
2023/06/21 14:44:23;;;;;;;6.83;6.10;;;;;;;;;;4975112;28;20201;-71
2023/06/21 14:47:08;;;;;;;13.57;6.43;;;;;;;;;;4992514;28;20180;-71
2023/06/21 14:49:35;;;;;;;9.77;6.27;;;;;;;;;;4992183;28;20204;-71
2023/06/21 14:52:02;;;;;;;8.53;6.60;;;;;;;;;;4992129;28;20628;-70
2023/06/21 14:54:29;;;;;;;9.90;6.47;;;;;;;;;;4974970;28;20690;-71
2023/06/21 14:56:57;;;;;;;9.30;6.23;;;;;;;;;;4992635;28;20224;-71
2023/06/21 14:59:27;;;;;;;11.37;6.53;;;;;;;;;;4974921;28;20189;-71
2023/06/21 15:01:55;;;;;;;7.23;6.10;;;;;;;;;;4974998;28;20185;-71
2023/06/21 15:04:22;;;;;;;9.57;6.53;;;;;;;;;;4990804;28;20193;-71
2023/06/21 15:06:49;;;;;;;16.20;7.07;;;;;;;;;;4997575;28;20247;-71
2023/06/21 15:09:16;;;;;;;8.50;6.63;;;;;;;;;;5011045;28;20196;-69
2023/06/21 15:11:44;;;;;;;7.07;6.03;;;;;;;;;;4989378;28;20200;-70
2023/06/21 15:14:11;;;;;;;7.57;6.07;;;;;;;;;;4989463;28;20726;-71
2023/06/21 15:16:42;;;;;;;7.80;6.87;;;;;;;;;;5000600;28;20273;-71
2023/06/21 15:19:10;;;;;;;7.90;7.10;;;;;;;;;;4991534;28;20195;-72